sensor_id;sensor_type;location;lat;lon;timestamp;P1;durP1;ratioP1;P2;durP2;ratioP2
4636;SDS011;2331;48.806;9.140;2022-12-07T00:01:16;9.43;;;7.07;;
4636;SDS011;2331;48.806;9.140;2022-12-07T00:03:45;8.95;;;6.20;;
4636;SDS011;2331;48.806;9.140;2022-12-07T00:06:15;15.10;;;7.07;;
4636;SDS011;2331;48.806;9.140;2022-12-07T00:08:43;9.48;;;6.60;;
4636;SDS011;2331;48.806;9.140;2022-12-07T00:11:11;9.05;;;6.60;;
4636;SDS011;2331;48.806;9.140;2022-12-07T00:13:40;14.15;;;7.22;;
4636;SDS011;2331;48.806;9.140;2022-12-07T00:16:08;10.40;;;6.78;;
4636;SDS011;2331;48.806;9.140;2022-12-07T00:18:36;10.25;;;7.25;;
4636;SDS011;2331;48.806;9.140;2022-12-07T00:21:04;11.80;;;7.90;;
4636;SDS011;2331;48.806;9.140;2022-12-07T00:23:33;16.50;;;7.30;;
4636;SDS011;2331;48.806;9.140;2022-12-07T00:26:03;12.18;;;7.95;;
4636;SDS011;2331;48.806;9.140;2022-12-07T00:28:31;10.40;;;7.50;;
4636;SDS011;2331;48.806;9.140;2022-12-07T00:31:02;14.55;;;7.43;;
4636;SDS011;2331;48.806;9.140;2022-12-07T00:33:30;11.93;;;7.55;;
4636;SDS011;2331;48.806;9.140;2022-12-07T00:35:58;11.45;;;7.35;;
4636;SDS011;2331;48.806;9.140;2022-12-07T00:38:26;13.45;;;8.27;;
4636;SDS011;2331;48.806;9.140;2022-12-07T00:40:57;10.27;;;7.35;;
4636;SDS011;2331;48.806;9.140;2022-12-07T00:43:24;10.07;;;7.22;;
4636;SDS011;2331;48.806;9.140;2022-12-07T00:45:51;10.55;;;7.60;;
4636;SDS011;2331;48.806;9.140;2022-12-07T00:48:18;13.77;;;8.45;;
4636;SDS011;2331;48.806;9.140;2022-12-07T00:50:45;13.07;;;8.55;;
4636;SDS011;2331;48.806;9.140;2022-12-07T00:53:12;12.80;;;7.65;;
4636;SDS011;2331;48.806;9.140;2022-12-07T00:55:39;13.25;;;8.60;;
4636;SDS011;2331;48.806;9.140;2022-12-07T00:58:08;13.38;;;7.97;;
4636;SDS011;2331;48.806;9.140;2022-12-07T01:00:36;12.82;;;8.73;;
4636;SDS011;2331;48.806;9.140;2022-12-07T01:03:04;14.50;;;8.68;;
4636;SDS011;2331;48.806;9.140;2022-12-07T01:05:31;11.95;;;8.02;;
4636;SDS011;2331;48.806;9.140;2022-12-07T01:07:57;14.23;;;8.18;;
4636;SDS011;2331;48.806;9.140;2022-12-07T01:10:24;13.93;;;8.75;;
4636;SDS011;2331;48.806;9.140;2022-12-07T01:12:51;11.52;;;7.88;;
4636;SDS011;2331;48.806;9.140;2022-12-07T01:15:20;11.82;;;8.20;;
4636;SDS011;2331;48.806;9.140;2022-12-07T01:17:46;13.98;;;8.75;;
4636;SDS011;2331;48.806;9.140;2022-12-07T01:20:13;13.07;;;8.57;;
4636;SDS011;2331;48.806;9.140;2022-12-07T01:22:41;13.45;;;8.38;;
4636;SDS011;2331;48.806;9.140;2022-12-07T01:25:09;15.32;;;8.75;;
4636;SDS011;2331;48.806;9.140;2022-12-07T01:27:37;12.85;;;8.02;;
4636;SDS011;2331;48.806;9.140;2022-12-07T01:30:04;11.82;;;8.50;;
4636;SDS011;2331;48.806;9.140;2022-12-07T01:32:34;10.95;;;7.93;;
4636;SDS011;2331;48.806;9.140;2022-12-07T01:35:00;12.32;;;7.93;;
4636;SDS011;2331;48.806;9.140;2022-12-07T01:37:27;11.80;;;8.52;;
4636;SDS011;2331;48.806;9.140;2022-12-07T01:39:54;15.27;;;8.35;;
4636;SDS011;2331;48.806;9.140;2022-12-07T01:42:20;14.02;;;8.95;;
4636;SDS011;2331;48.806;9.140;2022-12-07T01:47:50;12.02;;;8.20;;
4636;SDS011;2331;48.806;9.140;2022-12-07T01:50:19;12.85;;;7.50;;
4636;SDS011;2331;48.806;9.140;2022-12-07T01:52:47;13.73;;;8.65;;
4636;SDS011;2331;48.806;9.140;2022-12-07T01:55:17;14.40;;;8.75;;
4636;SDS011;2331;48.806;9.140;2022-12-07T01:57:45;12.90;;;8.93;;
4636;SDS011;2331;48.806;9.140;2022-12-07T02:00:15;13.55;;;8.20;;
4636;SDS011;2331;48.806;9.140;2022-12-07T02:02:43;12.90;;;8.15;;
4636;SDS011;2331;48.806;9.140;2022-12-07T02:05:14;12.80;;;8.77;;
4636;SDS011;2331;48.806;9.140;2022-12-07T02:07:42;11.85;;;7.65;;
4636;SDS011;2331;48.806;9.140;2022-12-07T02:10:14;11.80;;;7.57;;
4636;SDS011;2331;48.806;9.140;2022-12-07T02:12:41;11.15;;;7.38;;
4636;SDS011;2331;48.806;9.140;2022-12-07T02:15:10;11.20;;;8.07;;
4636;SDS011;2331;48.806;9.140;2022-12-07T02:17:38;16.40;;;9.82;;
4636;SDS011;2331;48.806;9.140;2022-12-07T02:20:16;13.95;;;8.27;;
4636;SDS011;2331;48.806;9.140;2022-12-07T02:23:04;13.30;;;8.32;;
4636;SDS011;2331;48.806;9.140;2022-12-07T02:26:02;12.32;;;7.60;;
4636;SDS011;2331;48.806;9.140;2022-12-07T02:28:54;11.88;;;7.80;;
4636;SDS011;2331;48.806;9.140;2022-12-07T02:31:29;13.50;;;8.40;;
4636;SDS011;2331;48.806;9.140;2022-12-07T02:34:00;12.05;;;8.13;;
4636;SDS011;2331;48.806;9.140;2022-12-07T02:36:32;11.05;;;7.45;;
4636;SDS011;2331;48.806;9.140;2022-12-07T02:39:06;11.70;;;7.53;;
4636;SDS011;2331;48.806;9.140;2022-12-07T02:41:38;11.43;;;7.78;;
4636;SDS011;2331;48.806;9.140;2022-12-07T02:44:11;13.80;;;8.45;;
4636;SDS011;2331;48.806;9.140;2022-12-07T02:46:43;13.50;;;8.38;;
4636;SDS011;2331;48.806;9.140;2022-12-07T02:49:14;11.88;;;8.05;;
4636;SDS011;2331;48.806;9.140;2022-12-07T02:51:42;12.05;;;8.30;;
4636;SDS011;2331;48.806;9.140;2022-12-07T02:54:12;15.05;;;8.30;;
4636;SDS011;2331;48.806;9.140;2022-12-07T02:56:41;11.80;;;7.85;;
4636;SDS011;2331;48.806;9.140;2022-12-07T02:59:18;10.85;;;7.30;;
4636;SDS011;2331;48.806;9.140;2022-12-07T03:01:54;11.93;;;8.20;;
4636;SDS011;2331;48.806;9.140;2022-12-07T03:04:32;12.20;;;7.70;;
4636;SDS011;2331;48.806;9.140;2022-12-07T03:07:15;13.15;;;8.25;;
4636;SDS011;2331;48.806;9.140;2022-12-07T03:09:51;11.43;;;7.53;;
4636;SDS011;2331;48.806;9.140;2022-12-07T03:12:27;10.23;;;6.47;;
4636;SDS011;2331;48.806;9.140;2022-12-07T03:15:00;11.38;;;7.53;;
4636;SDS011;2331;48.806;9.140;2022-12-07T03:17:31;12.55;;;7.43;;
4636;SDS011;2331;48.806;9.140;2022-12-07T03:20:03;11.10;;;7.53;;
4636;SDS011;2331;48.806;9.140;2022-12-07T03:22:32;12.50;;;7.10;;
4636;SDS011;2331;48.806;9.140;2022-12-07T03:25:03;13.68;;;7.72;;
4636;SDS011;2331;48.806;9.140;2022-12-07T03:27:34;11.38;;;7.05;;
4636;SDS011;2331;48.806;9.140;2022-12-07T03:30:07;13.38;;;7.30;;
4636;SDS011;2331;48.806;9.140;2022-12-07T03:32:39;11.32;;;6.57;;
4636;SDS011;2331;48.806;9.140;2022-12-07T03:35:11;9.77;;;6.70;;
4636;SDS011;2331;48.806;9.140;2022-12-07T03:37:43;9.90;;;6.28;;
4636;SDS011;2331;48.806;9.140;2022-12-07T03:40:15;11.20;;;6.72;;
4636;SDS011;2331;48.806;9.140;2022-12-07T03:42:46;10.55;;;6.68;;
4636;SDS011;2331;48.806;9.140;2022-12-07T03:45:15;9.43;;;6.47;;
4636;SDS011;2331;48.806;9.140;2022-12-07T03:47:43;12.07;;;6.90;;
4636;SDS011;2331;48.806;9.140;2022-12-07T03:50:14;8.77;;;6.10;;
4636;SDS011;2331;48.806;9.140;2022-12-07T03:52:46;9.90;;;6.85;;
4636;SDS011;2331;48.806;9.140;2022-12-07T03:55:19;11.77;;;7.28;;
4636;SDS011;2331;48.806;9.140;2022-12-07T03:57:52;7.50;;;5.57;;
4636;SDS011;2331;48.806;9.140;2022-12-07T04:00:23;9.48;;;5.95;;
4636;SDS011;2331;48.806;9.140;2022-12-07T04:02:51;7.88;;;5.30;;
4636;SDS011;2331;48.806;9.140;2022-12-07T04:05:18;9.98;;;6.15;;
4636;SDS011;2331;48.806;9.140;2022-12-07T04:07:45;7.35;;;5.35;;
4636;SDS011;2331;48.806;9.140;2022-12-07T04:10:12;8.20;;;5.10;;
4636;SDS011;2331;48.806;9.140;2022-12-07T04:12:39;7.70;;;5.20;;
4636;SDS011;2331;48.806;9.140;2022-12-07T04:15:07;6.95;;;5.35;;
4636;SDS011;2331;48.806;9.140;2022-12-07T04:17:36;8.15;;;5.30;;
4636;SDS011;2331;48.806;9.140;2022-12-07T04:20:03;7.93;;;5.05;;
4636;SDS011;2331;48.806;9.140;2022-12-07T04:22:31;7.10;;;4.60;;
4636;SDS011;2331;48.806;9.140;2022-12-07T04:24:57;6.22;;;4.30;;
4636;SDS011;2331;48.806;9.140;2022-12-07T04:27:24;5.43;;;3.80;;
4636;SDS011;2331;48.806;9.140;2022-12-07T04:29:51;6.18;;;3.75;;
4636;SDS011;2331;48.806;9.140;2022-12-07T04:32:18;5.13;;;3.60;;
4636;SDS011;2331;48.806;9.140;2022-12-07T04:34:46;5.30;;;3.78;;
4636;SDS011;2331;48.806;9.140;2022-12-07T04:37:13;6.18;;;4.30;;
4636;SDS011;2331;48.806;9.140;2022-12-07T04:39:40;5.00;;;3.55;;
4636;SDS011;2331;48.806;9.140;2022-12-07T04:42:08;4.60;;;3.00;;
4636;SDS011;2331;48.806;9.140;2022-12-07T04:44:35;4.32;;;2.95;;
4636;SDS011;2331;48.806;9.140;2022-12-07T04:47:02;4.55;;;3.25;;
4636;SDS011;2331;48.806;9.140;2022-12-07T04:49:29;5.47;;;2.92;;
4636;SDS011;2331;48.806;9.140;2022-12-07T04:51:57;3.72;;;2.60;;
4636;SDS011;2331;48.806;9.140;2022-12-07T04:54:24;5.00;;;3.25;;
4636;SDS011;2331;48.806;9.140;2022-12-07T04:56:50;4.10;;;2.92;;
4636;SDS011;2331;48.806;9.140;2022-12-07T04:59:17;4.70;;;3.25;;
4636;SDS011;2331;48.806;9.140;2022-12-07T05:01:44;4.80;;;2.88;;
4636;SDS011;2331;48.806;9.140;2022-12-07T05:04:11;4.45;;;2.90;;
4636;SDS011;2331;48.806;9.140;2022-12-07T05:06:38;5.07;;;3.03;;
4636;SDS011;2331;48.806;9.140;2022-12-07T05:09:06;5.15;;;3.25;;
4636;SDS011;2331;48.806;9.140;2022-12-07T05:11:32;5.10;;;3.60;;
4636;SDS011;2331;48.806;9.140;2022-12-07T05:14:06;4.93;;;3.15;;
4636;SDS011;2331;48.806;9.140;2022-12-07T05:16:35;4.97;;;3.10;;
4636;SDS011;2331;48.806;9.140;2022-12-07T05:19:02;4.18;;;2.92;;
4636;SDS011;2331;48.806;9.140;2022-12-07T05:21:29;6.65;;;3.13;;
4636;SDS011;2331;48.806;9.140;2022-12-07T05:23:56;3.67;;;2.83;;
4636;SDS011;2331;48.806;9.140;2022-12-07T05:26:24;3.58;;;2.65;;
4636;SDS011;2331;48.806;9.140;2022-12-07T05:28:51;5.28;;;3.80;;
4636;SDS011;2331;48.806;9.140;2022-12-07T05:31:18;7.85;;;4.25;;
4636;SDS011;2331;48.806;9.140;2022-12-07T05:33:45;7.93;;;5.38;;
4636;SDS011;2331;48.806;9.140;2022-12-07T05:36:13;9.68;;;5.80;;
4636;SDS011;2331;48.806;9.140;2022-12-07T05:38:40;7.90;;;5.60;;
4636;SDS011;2331;48.806;9.140;2022-12-07T05:41:07;10.23;;;5.57;;
4636;SDS011;2331;48.806;9.140;2022-12-07T05:43:56;8.63;;;5.22;;
4636;SDS011;2331;48.806;9.140;2022-12-07T05:46:23;7.10;;;4.90;;
4636;SDS011;2331;48.806;9.140;2022-12-07T05:48:50;9.20;;;6.30;;
4636;SDS011;2331;48.806;9.140;2022-12-07T05:51:17;9.32;;;5.60;;
4636;SDS011;2331;48.806;9.140;2022-12-07T05:53:43;10.85;;;5.80;;
4636;SDS011;2331;48.806;9.140;2022-12-07T05:56:10;9.32;;;5.78;;
4636;SDS011;2331;48.806;9.140;2022-12-07T05:58:37;12.48;;;6.90;;
4636;SDS011;2331;48.806;9.140;2022-12-07T06:01:22;18.80;;;7.35;;
4636;SDS011;2331;48.806;9.140;2022-12-07T06:03:49;8.98;;;5.93;;
4636;SDS011;2331;48.806;9.140;2022-12-07T06:06:16;9.00;;;5.47;;
4636;SDS011;2331;48.806;9.140;2022-12-07T06:08:42;9.68;;;6.10;;
4636;SDS011;2331;48.806;9.140;2022-12-07T06:11:09;8.95;;;5.97;;
4636;SDS011;2331;48.806;9.140;2022-12-07T06:13:53;9.48;;;5.90;;
4636;SDS011;2331;48.806;9.140;2022-12-07T06:16:20;7.95;;;5.05;;
4636;SDS011;2331;48.806;9.140;2022-12-07T06:18:48;6.30;;;4.70;;
4636;SDS011;2331;48.806;9.140;2022-12-07T06:21:15;10.88;;;6.10;;
4636;SDS011;2331;48.806;9.140;2022-12-07T06:23:42;10.52;;;6.55;;
4636;SDS011;2331;48.806;9.140;2022-12-07T06:26:08;7.82;;;5.40;;
4636;SDS011;2331;48.806;9.140;2022-12-07T06:28:35;10.77;;;6.15;;
4636;SDS011;2331;48.806;9.140;2022-12-07T06:31:02;8.85;;;5.30;;
4636;SDS011;2331;48.806;9.140;2022-12-07T06:33:29;8.40;;;5.25;;
4636;SDS011;2331;48.806;9.140;2022-12-07T06:35:58;8.75;;;5.47;;
4636;SDS011;2331;48.806;9.140;2022-12-07T06:38:24;9.27;;;5.95;;
4636;SDS011;2331;48.806;9.140;2022-12-07T06:40:51;9.38;;;5.25;;
4636;SDS011;2331;48.806;9.140;2022-12-07T06:43:18;8.85;;;4.93;;
4636;SDS011;2331;48.806;9.140;2022-12-07T06:45:45;6.28;;;4.40;;
4636;SDS011;2331;48.806;9.140;2022-12-07T06:48:11;7.18;;;4.57;;
4636;SDS011;2331;48.806;9.140;2022-12-07T06:50:39;6.10;;;4.10;;
4636;SDS011;2331;48.806;9.140;2022-12-07T06:53:07;6.88;;;4.05;;
4636;SDS011;2331;48.806;9.140;2022-12-07T06:55:35;6.90;;;4.20;;
4636;SDS011;2331;48.806;9.140;2022-12-07T06:58:01;5.75;;;3.80;;
4636;SDS011;2331;48.806;9.140;2022-12-07T07:00:28;7.93;;;4.32;;
4636;SDS011;2331;48.806;9.140;2022-12-07T07:02:55;7.78;;;4.90;;
4636;SDS011;2331;48.806;9.140;2022-12-07T07:05:22;6.13;;;4.00;;
4636;SDS011;2331;48.806;9.140;2022-12-07T07:07:49;5.43;;;3.63;;
4636;SDS011;2331;48.806;9.140;2022-12-07T07:10:17;5.75;;;3.65;;
4636;SDS011;2331;48.806;9.140;2022-12-07T07:12:44;6.57;;;3.53;;
4636;SDS011;2331;48.806;9.140;2022-12-07T07:15:11;5.95;;;3.65;;
4636;SDS011;2331;48.806;9.140;2022-12-07T07:17:38;6.03;;;3.80;;
4636;SDS011;2331;48.806;9.140;2022-12-07T07:20:05;5.95;;;3.70;;
4636;SDS011;2331;48.806;9.140;2022-12-07T07:22:32;5.20;;;3.40;;
4636;SDS011;2331;48.806;9.140;2022-12-07T07:24:59;5.97;;;3.13;;
4636;SDS011;2331;48.806;9.140;2022-12-07T07:27:27;5.13;;;3.15;;
4636;SDS011;2331;48.806;9.140;2022-12-07T07:29:54;6.22;;;3.40;;
4636;SDS011;2331;48.806;9.140;2022-12-07T07:32:20;4.47;;;2.90;;
4636;SDS011;2331;48.806;9.140;2022-12-07T07:34:47;5.90;;;3.67;;
4636;SDS011;2331;48.806;9.140;2022-12-07T07:37:14;4.93;;;3.20;;
4636;SDS011;2331;48.806;9.140;2022-12-07T07:39:41;4.70;;;3.25;;
4636;SDS011;2331;48.806;9.140;2022-12-07T07:42:07;4.45;;;3.25;;
4636;SDS011;2331;48.806;9.140;2022-12-07T07:44:35;6.13;;;3.83;;
4636;SDS011;2331;48.806;9.140;2022-12-07T07:47:02;6.40;;;3.42;;
4636;SDS011;2331;48.806;9.140;2022-12-07T07:49:29;5.15;;;3.60;;
4636;SDS011;2331;48.806;9.140;2022-12-07T07:51:56;5.30;;;3.70;;
4636;SDS011;2331;48.806;9.140;2022-12-07T07:54:23;5.55;;;3.75;;
4636;SDS011;2331;48.806;9.140;2022-12-07T07:56:49;9.20;;;3.88;;
4636;SDS011;2331;48.806;9.140;2022-12-07T07:59:16;3.95;;;3.10;;
4636;SDS011;2331;48.806;9.140;2022-12-07T08:01:44;5.85;;;3.53;;
4636;SDS011;2331;48.806;9.140;2022-12-07T08:04:11;5.78;;;3.65;;
4636;SDS011;2331;48.806;9.140;2022-12-07T08:06:38;5.35;;;3.33;;
4636;SDS011;2331;48.806;9.140;2022-12-07T08:09:07;5.20;;;3.17;;
4636;SDS011;2331;48.806;9.140;2022-12-07T08:11:34;5.53;;;3.67;;
4636;SDS011;2331;48.806;9.140;2022-12-07T08:14:01;7.85;;;4.70;;
4636;SDS011;2331;48.806;9.140;2022-12-07T08:16:28;5.22;;;3.58;;
4636;SDS011;2331;48.806;9.140;2022-12-07T08:18:56;5.60;;;3.40;;
4636;SDS011;2331;48.806;9.140;2022-12-07T08:21:23;7.53;;;4.20;;
4636;SDS011;2331;48.806;9.140;2022-12-07T08:23:50;5.25;;;3.50;;
4636;SDS011;2331;48.806;9.140;2022-12-07T08:26:16;8.57;;;3.55;;
4636;SDS011;2331;48.806;9.140;2022-12-07T08:28:43;6.18;;;3.83;;
4636;SDS011;2331;48.806;9.140;2022-12-07T08:31:12;6.28;;;3.70;;
4636;SDS011;2331;48.806;9.140;2022-12-07T08:33:40;6.95;;;3.80;;
4636;SDS011;2331;48.806;9.140;2022-12-07T08:36:09;6.28;;;3.70;;
4636;SDS011;2331;48.806;9.140;2022-12-07T08:38:37;8.50;;;3.85;;
4636;SDS011;2331;48.806;9.140;2022-12-07T08:41:05;6.28;;;3.80;;
4636;SDS011;2331;48.806;9.140;2022-12-07T08:43:33;5.93;;;3.78;;
4636;SDS011;2331;48.806;9.140;2022-12-07T08:46:03;6.25;;;4.05;;
4636;SDS011;2331;48.806;9.140;2022-12-07T08:48:33;6.50;;;4.25;;
4636;SDS011;2331;48.806;9.140;2022-12-07T08:51:03;8.93;;;3.60;;
4636;SDS011;2331;48.806;9.140;2022-12-07T08:53:31;5.63;;;3.50;;
4636;SDS011;2331;48.806;9.140;2022-12-07T08:56:00;6.72;;;3.97;;
4636;SDS011;2331;48.806;9.140;2022-12-07T08:58:27;5.72;;;3.90;;
4636;SDS011;2331;48.806;9.140;2022-12-07T09:00:53;4.60;;;3.25;;
4636;SDS011;2331;48.806;9.140;2022-12-07T09:03:20;5.32;;;3.25;;
4636;SDS011;2331;48.806;9.140;2022-12-07T09:05:47;4.80;;;3.13;;
4636;SDS011;2331;48.806;9.140;2022-12-07T09:08:13;6.50;;;3.65;;
4636;SDS011;2331;48.806;9.140;2022-12-07T09:10:42;5.95;;;3.35;;
4636;SDS011;2331;48.806;9.140;2022-12-07T09:13:09;4.25;;;2.88;;
4636;SDS011;2331;48.806;9.140;2022-12-07T09:15:36;3.65;;;2.78;;
4636;SDS011;2331;48.806;9.140;2022-12-07T09:18:02;4.97;;;3.30;;
4636;SDS011;2331;48.806;9.140;2022-12-07T09:20:29;4.40;;;3.17;;
4636;SDS011;2331;48.806;9.140;2022-12-07T09:22:56;6.30;;;2.88;;
4636;SDS011;2331;48.806;9.140;2022-12-07T09:25:23;5.20;;;3.33;;
4636;SDS011;2331;48.806;9.140;2022-12-07T09:27:55;3.80;;;2.45;;
4636;SDS011;2331;48.806;9.140;2022-12-07T09:30:23;3.55;;;2.88;;
4636;SDS011;2331;48.806;9.140;2022-12-07T09:32:50;4.45;;;3.22;;
4636;SDS011;2331;48.806;9.140;2022-12-07T09:35:18;5.50;;;2.88;;
4636;SDS011;2331;48.806;9.140;2022-12-07T09:37:45;5.57;;;3.42;;
4636;SDS011;2331;48.806;9.140;2022-12-07T09:40:12;4.25;;;2.90;;
4636;SDS011;2331;48.806;9.140;2022-12-07T09:42:41;4.15;;;2.80;;
4636;SDS011;2331;48.806;9.140;2022-12-07T09:45:13;5.97;;;3.20;;
4636;SDS011;2331;48.806;9.140;2022-12-07T09:47:41;6.20;;;3.15;;
4636;SDS011;2331;48.806;9.140;2022-12-07T09:50:12;6.43;;;3.95;;
4636;SDS011;2331;48.806;9.140;2022-12-07T09:52:41;4.68;;;2.65;;
4636;SDS011;2331;48.806;9.140;2022-12-07T09:55:10;4.15;;;3.05;;
4636;SDS011;2331;48.806;9.140;2022-12-07T09:57:39;5.10;;;3.20;;
4636;SDS011;2331;48.806;9.140;2022-12-07T10:00:07;4.70;;;2.90;;
4636;SDS011;2331;48.806;9.140;2022-12-07T10:02:41;4.22;;;2.95;;
4636;SDS011;2331;48.806;9.140;2022-12-07T10:05:12;4.00;;;2.90;;
4636;SDS011;2331;48.806;9.140;2022-12-07T10:07:42;3.33;;;2.70;;
4636;SDS011;2331;48.806;9.140;2022-12-07T10:10:13;7.07;;;3.67;;
4636;SDS011;2331;48.806;9.140;2022-12-07T10:12:54;4.20;;;3.30;;
4636;SDS011;2331;48.806;9.140;2022-12-07T10:15:24;5.22;;;3.20;;
4636;SDS011;2331;48.806;9.140;2022-12-07T10:18:16;4.90;;;3.40;;
4636;SDS011;2331;48.806;9.140;2022-12-07T10:20:46;6.93;;;3.67;;
4636;SDS011;2331;48.806;9.140;2022-12-07T10:23:14;4.47;;;3.22;;
4636;SDS011;2331;48.806;9.140;2022-12-07T10:25:43;5.25;;;3.40;;
4636;SDS011;2331;48.806;9.140;2022-12-07T10:28:13;6.90;;;3.70;;
4636;SDS011;2331;48.806;9.140;2022-12-07T10:30:53;7.35;;;4.18;;
4636;SDS011;2331;48.806;9.140;2022-12-07T10:33:27;5.13;;;3.30;;
4636;SDS011;2331;48.806;9.140;2022-12-07T10:35:56;5.13;;;3.20;;
4636;SDS011;2331;48.806;9.140;2022-12-07T10:38:24;7.90;;;3.58;;
4636;SDS011;2331;48.806;9.140;2022-12-07T10:41:02;5.30;;;3.22;;
4636;SDS011;2331;48.806;9.140;2022-12-07T10:43:30;5.05;;;3.38;;
4636;SDS011;2331;48.806;9.140;2022-12-07T10:46:17;8.73;;;3.63;;
4636;SDS011;2331;48.806;9.140;2022-12-07T10:49:05;8.82;;;3.17;;
4636;SDS011;2331;48.806;9.140;2022-12-07T10:51:45;5.60;;;3.20;;
4636;SDS011;2331;48.806;9.140;2022-12-07T10:54:21;5.90;;;3.20;;
4636;SDS011;2331;48.806;9.140;2022-12-07T10:57:07;4.22;;;3.22;;
4636;SDS011;2331;48.806;9.140;2022-12-07T10:59:49;5.57;;;3.47;;
4636;SDS011;2331;48.806;9.140;2022-12-07T11:02:34;5.18;;;3.10;;
4636;SDS011;2331;48.806;9.140;2022-12-07T11:05:17;3.50;;;2.35;;
4636;SDS011;2331;48.806;9.140;2022-12-07T11:07:52;3.60;;;2.67;;
4636;SDS011;2331;48.806;9.140;2022-12-07T11:10:29;2.50;;;1.90;;
4636;SDS011;2331;48.806;9.140;2022-12-07T11:13:14;2.33;;;1.80;;
4636;SDS011;2331;48.806;9.140;2022-12-07T11:15:53;2.70;;;1.70;;
4636;SDS011;2331;48.806;9.140;2022-12-07T11:18:32;2.30;;;1.70;;
4636;SDS011;2331;48.806;9.140;2022-12-07T11:21:06;3.22;;;1.90;;
4636;SDS011;2331;48.806;9.140;2022-12-07T11:23:45;2.60;;;1.60;;
4636;SDS011;2331;48.806;9.140;2022-12-07T11:26:18;3.90;;;1.77;;
4636;SDS011;2331;48.806;9.140;2022-12-07T11:29:05;2.15;;;1.80;;
4636;SDS011;2331;48.806;9.140;2022-12-07T11:31:45;2.70;;;1.80;;
4636;SDS011;2331;48.806;9.140;2022-12-07T11:34:26;7.78;;;2.33;;
4636;SDS011;2331;48.806;9.140;2022-12-07T11:37:00;3.75;;;2.55;;
4636;SDS011;2331;48.806;9.140;2022-12-07T11:39:30;4.40;;;3.03;;
4636;SDS011;2331;48.806;9.140;2022-12-07T11:42:03;6.53;;;3.33;;
4636;SDS011;2331;48.806;9.140;2022-12-07T11:44:34;7.60;;;4.13;;
4636;SDS011;2331;48.806;9.140;2022-12-07T11:47:07;7.20;;;4.28;;
4636;SDS011;2331;48.806;9.140;2022-12-07T11:49:42;7.18;;;4.90;;
4636;SDS011;2331;48.806;9.140;2022-12-07T11:52:16;8.05;;;4.88;;
4636;SDS011;2331;48.806;9.140;2022-12-07T11:54:50;8.25;;;3.65;;
4636;SDS011;2331;48.806;9.140;2022-12-07T11:57:20;6.18;;;4.13;;
4636;SDS011;2331;48.806;9.140;2022-12-07T11:59:56;7.25;;;4.55;;
4636;SDS011;2331;48.806;9.140;2022-12-07T12:02:27;8.18;;;4.88;;
4636;SDS011;2331;48.806;9.140;2022-12-07T12:05:02;6.55;;;4.13;;
4636;SDS011;2331;48.806;9.140;2022-12-07T12:07:38;9.90;;;4.15;;
4636;SDS011;2331;48.806;9.140;2022-12-07T12:10:13;5.93;;;4.03;;
4636;SDS011;2331;48.806;9.140;2022-12-07T12:12:54;9.13;;;5.00;;
4636;SDS011;2331;48.806;9.140;2022-12-07T12:15:36;9.05;;;4.70;;
4636;SDS011;2331;48.806;9.140;2022-12-07T12:18:17;5.90;;;4.20;;
4636;SDS011;2331;48.806;9.140;2022-12-07T12:21:00;6.68;;;3.78;;
4636;SDS011;2331;48.806;9.140;2022-12-07T12:23:34;6.43;;;4.13;;
4636;SDS011;2331;48.806;9.140;2022-12-07T12:26:06;5.75;;;4.03;;
4636;SDS011;2331;48.806;9.140;2022-12-07T12:28:40;5.68;;;3.83;;
4636;SDS011;2331;48.806;9.140;2022-12-07T12:31:15;7.68;;;4.22;;
4636;SDS011;2331;48.806;9.140;2022-12-07T12:33:55;6.32;;;3.72;;
4636;SDS011;2331;48.806;9.140;2022-12-07T12:36:25;6.13;;;4.22;;
4636;SDS011;2331;48.806;9.140;2022-12-07T12:39:10;6.43;;;4.30;;
4636;SDS011;2331;48.806;9.140;2022-12-07T12:41:58;7.38;;;4.47;;
4636;SDS011;2331;48.806;9.140;2022-12-07T12:47:51;7.53;;;4.82;;
4636;SDS011;2331;48.806;9.140;2022-12-07T12:50:24;7.65;;;4.88;;
4636;SDS011;2331;48.806;9.140;2022-12-07T12:52:58;6.80;;;3.83;;
4636;SDS011;2331;48.806;9.140;2022-12-07T12:58:46;5.85;;;3.60;;
4636;SDS011;2331;48.806;9.140;2022-12-07T13:01:32;5.95;;;4.13;;
4636;SDS011;2331;48.806;9.140;2022-12-07T13:06:52;6.40;;;4.10;;
4636;SDS011;2331;48.806;9.140;2022-12-07T13:09:22;5.95;;;3.65;;
4636;SDS011;2331;48.806;9.140;2022-12-07T13:11:56;5.75;;;3.70;;
4636;SDS011;2331;48.806;9.140;2022-12-07T13:23:24;5.43;;;3.80;;
4636;SDS011;2331;48.806;9.140;2022-12-07T13:25:57;7.75;;;4.45;;
4636;SDS011;2331;48.806;9.140;2022-12-07T13:28:44;8.73;;;4.18;;
4636;SDS011;2331;48.806;9.140;2022-12-07T13:31:21;6.90;;;4.30;;
4636;SDS011;2331;48.806;9.140;2022-12-07T13:33:58;7.32;;;4.20;;
4636;SDS011;2331;48.806;9.140;2022-12-07T13:36:26;6.10;;;3.85;;
4636;SDS011;2331;48.806;9.140;2022-12-07T13:38:55;6.35;;;4.60;;
4636;SDS011;2331;48.806;9.140;2022-12-07T13:41:25;7.65;;;4.15;;
4636;SDS011;2331;48.806;9.140;2022-12-07T13:43:53;6.07;;;4.35;;
4636;SDS011;2331;48.806;9.140;2022-12-07T13:46:29;7.50;;;5.18;;
4636;SDS011;2331;48.806;9.140;2022-12-07T13:49:02;6.00;;;4.15;;
4636;SDS011;2331;48.806;9.140;2022-12-07T13:51:29;10.38;;;4.75;;
4636;SDS011;2331;48.806;9.140;2022-12-07T13:54:10;7.78;;;4.53;;
4636;SDS011;2331;48.806;9.140;2022-12-07T13:56:39;7.30;;;4.30;;
4636;SDS011;2331;48.806;9.140;2022-12-07T13:59:10;9.82;;;4.35;;
4636;SDS011;2331;48.806;9.140;2022-12-07T14:01:41;7.38;;;4.57;;
4636;SDS011;2331;48.806;9.140;2022-12-07T14:06:56;7.00;;;4.57;;
4636;SDS011;2331;48.806;9.140;2022-12-07T14:09:24;8.98;;;4.80;;
4636;SDS011;2331;48.806;9.140;2022-12-07T14:11:53;8.18;;;5.07;;
4636;SDS011;2331;48.806;9.140;2022-12-07T14:14:22;7.65;;;4.70;;
4636;SDS011;2331;48.806;9.140;2022-12-07T14:16:59;7.20;;;4.53;;
4636;SDS011;2331;48.806;9.140;2022-12-07T14:19:40;7.20;;;4.72;;
4636;SDS011;2331;48.806;9.140;2022-12-07T14:22:17;6.70;;;4.72;;
4636;SDS011;2331;48.806;9.140;2022-12-07T14:24:58;7.32;;;4.68;;
4636;SDS011;2331;48.806;9.140;2022-12-07T14:27:31;8.13;;;5.65;;
4636;SDS011;2331;48.806;9.140;2022-12-07T14:30:01;8.68;;;4.63;;
4636;SDS011;2331;48.806;9.140;2022-12-07T14:32:29;6.78;;;4.80;;
4636;SDS011;2331;48.806;9.140;2022-12-07T14:34:57;8.63;;;5.30;;
4636;SDS011;2331;48.806;9.140;2022-12-07T14:37:26;8.25;;;5.25;;
4636;SDS011;2331;48.806;9.140;2022-12-07T14:39:53;10.40;;;6.03;;
4636;SDS011;2331;48.806;9.140;2022-12-07T14:42:20;7.22;;;4.90;;
4636;SDS011;2331;48.806;9.140;2022-12-07T14:44:51;8.57;;;4.78;;
4636;SDS011;2331;48.806;9.140;2022-12-07T14:47:18;9.45;;;5.70;;
4636;SDS011;2331;48.806;9.140;2022-12-07T14:49:44;7.05;;;4.45;;
4636;SDS011;2331;48.806;9.140;2022-12-07T14:52:13;8.63;;;5.25;;
4636;SDS011;2331;48.806;9.140;2022-12-07T14:54:42;8.80;;;4.93;;
4636;SDS011;2331;48.806;9.140;2022-12-07T14:57:09;8.25;;;4.70;;
4636;SDS011;2331;48.806;9.140;2022-12-07T14:59:36;7.60;;;4.78;;
4636;SDS011;2331;48.806;9.140;2022-12-07T15:02:05;9.40;;;5.07;;
4636;SDS011;2331;48.806;9.140;2022-12-07T15:04:32;7.78;;;4.78;;
4636;SDS011;2331;48.806;9.140;2022-12-07T15:06:59;8.20;;;4.95;;
4636;SDS011;2331;48.806;9.140;2022-12-07T15:09:27;9.10;;;4.50;;
4636;SDS011;2331;48.806;9.140;2022-12-07T15:11:54;7.63;;;4.20;;
4636;SDS011;2331;48.806;9.140;2022-12-07T15:14:21;4.35;;;3.05;;
4636;SDS011;2331;48.806;9.140;2022-12-07T15:16:48;5.10;;;3.45;;
4636;SDS011;2331;48.806;9.140;2022-12-07T15:19:17;4.70;;;3.50;;
4636;SDS011;2331;48.806;9.140;2022-12-07T15:21:46;6.72;;;4.20;;
4636;SDS011;2331;48.806;9.140;2022-12-07T15:24:12;6.47;;;4.35;;
4636;SDS011;2331;48.806;9.140;2022-12-07T15:26:39;6.90;;;4.22;;
4636;SDS011;2331;48.806;9.140;2022-12-07T15:29:06;7.47;;;4.47;;
4636;SDS011;2331;48.806;9.140;2022-12-07T15:31:34;7.55;;;4.55;;
4636;SDS011;2331;48.806;9.140;2022-12-07T15:34:01;8.93;;;5.40;;
4636;SDS011;2331;48.806;9.140;2022-12-07T15:36:30;9.20;;;5.78;;
4636;SDS011;2331;48.806;9.140;2022-12-07T15:38:58;10.73;;;5.78;;
4636;SDS011;2331;48.806;9.140;2022-12-07T15:41:25;7.68;;;5.13;;
4636;SDS011;2331;48.806;9.140;2022-12-07T15:43:52;12.10;;;6.20;;
4636;SDS011;2331;48.806;9.140;2022-12-07T15:46:37;10.52;;;6.05;;
4636;SDS011;2331;48.806;9.140;2022-12-07T15:49:06;10.82;;;6.45;;
4636;SDS011;2331;48.806;9.140;2022-12-07T15:51:37;12.00;;;6.15;;
4636;SDS011;2331;48.806;9.140;2022-12-07T15:54:04;8.95;;;5.68;;
4636;SDS011;2331;48.806;9.140;2022-12-07T15:56:31;9.23;;;5.50;;